NCAR-RAP Real-Time Weather Data

Output produced by METARs form (20 January 2018  03:38 UTC)
found at http://weather.rap.ucar.edu/surface/
 
KJDN 200248Z AUTO 26003KT 00/M02 A2973 RMK AO1 SLP092 T00001022 51012
KJDN 200148Z AUTO 25006KT 01/M01 A2971 RMK AO1 SLP088 T00061011
 
KGDV 200256Z AUTO 20003KT 10SM BKN100 01/M01 A2974 RMK AO2 SLP090 T00111006 51012 FZRANO
KGDV 200156Z AUTO 17004KT 10SM OVC110 01/M01 A2972 RMK AO2 SLP086 T00061006 FZRANO
 
KMLS 200253Z AUTO 27004KT 10SM OVC075 01/01 A2975 RMK AO2 SLP095 T00110006 53008
KMLS 200153Z AUTO 28006KT 10SM OVC070 02/01 A2975 RMK AO2 SLP093 T00170011
 
KBHK 200313Z AUTO 24005KT 7SM -RA BKN008 OVC015 01/01 A2975 RMK AO2 RAB0257 P0000 T00110011
KBHK 200304Z AUTO 26007KT 7SM -RA FEW008 BKN014 OVC021 01/01 A2975 RMK AO2 RAB0257 P0000 T00110011
KBHK 200259Z AUTO 26007KT 10SM -RA FEW010 BKN014 OVC021 01/01 A2975 RMK AO2 RAB57 P0000 T00110011
KBHK 200251Z AUTO 26005KT 10SM FEW007 BKN018 OVC023 01/01 A2975 RMK AO2 RAE45 SLP093 P0001 60001 T00110011 51016
KBHK 200240Z AUTO 26006KT 10SM -RA SCT007 BKN021 OVC039 01/01 A2975 RMK AO2 P0001 T00110011
KBHK 200226Z AUTO 26007KT 10SM -RA BKN007 BKN010 OVC022 01/01 A2974 RMK AO2 P0001 T00110011
KBHK 200201Z AUTO 27007KT 10SM -RA BKN014 OVC021 02/01 A2973 RMK AO2 P0000 T00170011
KBHK 200151Z AUTO 26006KT 9SM -RA SCT014 OVC021 01/01 A2973 RMK AO2 RAB41 SLP087 P0000 T00110011